createdAt,value
2018-06-11T00:01:08.890Z,19.33
2018-06-11T00:03:37.896Z,19.25
2018-06-11T00:06:06.976Z,19.18
2018-06-11T00:08:36.062Z,19.15
2018-06-11T00:11:05.147Z,19.15
2018-06-11T00:13:34.186Z,19.15
2018-06-11T00:16:02.981Z,19.17
2018-06-11T00:18:32.016Z,19.21
2018-06-11T00:21:01.207Z,19.22
2018-06-11T00:23:31.015Z,19.19
2018-06-11T00:25:59.905Z,19.15
2018-06-11T00:28:28.689Z,19.08
2018-06-11T00:30:57.347Z,19.00
2018-06-11T00:33:26.009Z,18.99
2018-06-11T00:35:54.716Z,18.98
2018-06-11T00:38:23.754Z,18.99
2018-06-11T00:40:52.696Z,18.99
2018-06-11T00:43:21.761Z,19.02
2018-06-11T00:45:51.017Z,18.98
2018-06-11T00:48:20.090Z,18.97
2018-06-11T00:50:49.283Z,18.90
2018-06-11T00:53:18.225Z,18.86
2018-06-11T00:55:57.914Z,18.87
2018-06-11T00:58:26.708Z,18.85
2018-06-11T01:00:55.724Z,18.81
2018-06-11T01:03:24.387Z,18.83
2018-06-11T01:05:53.172Z,18.81
2018-06-11T01:08:22.155Z,18.85
2018-06-11T01:10:51.221Z,18.79
2018-06-11T01:13:20.224Z,18.74
2018-06-11T01:15:49.298Z,18.70
2018-06-11T01:18:18.591Z,18.71
2018-06-11T01:20:47.290Z,18.67
2018-06-11T01:23:16.004Z,18.62
2018-06-11T01:25:44.734Z,18.61
2018-06-11T01:28:13.439Z,18.70
2018-06-11T01:30:42.098Z,18.74
2018-06-11T01:33:10.792Z,18.64
2018-06-11T01:35:39.437Z,18.61
2018-06-11T01:38:08.153Z,18.61
2018-06-11T01:40:36.792Z,18.60
2018-06-11T01:43:05.506Z,18.62
2018-06-11T01:45:34.169Z,18.66
2018-06-11T01:48:02.884Z,18.70
2018-06-11T01:50:31.654Z,18.62
2018-06-11T01:53:00.585Z,18.55
2018-06-11T01:55:29.581Z,18.58
2018-06-11T01:57:58.595Z,18.63
2018-06-11T02:00:27.584Z,18.65
2018-06-11T02:02:56.341Z,18.67
2018-06-11T02:05:25.206Z,18.66
2018-06-11T02:07:54.216Z,18.64
2018-06-11T02:10:23.191Z,18.65
2018-06-11T02:12:52.138Z,18.60
2018-06-11T02:15:21.053Z,18.63
2018-06-11T02:17:49.780Z,18.61
2018-06-11T02:20:18.675Z,18.58
2018-06-11T02:22:47.386Z,18.60
2018-06-11T02:25:16.365Z,18.56
2018-06-11T02:27:45.262Z,18.56
2018-06-11T02:30:14.325Z,18.60
2018-06-11T02:32:43.330Z,18.56
2018-06-11T02:35:12.402Z,18.56
2018-06-11T02:37:41.485Z,18.52
2018-06-11T02:40:10.542Z,18.51
2018-06-11T02:42:39.350Z,18.50
2018-06-11T02:45:08.312Z,18.46
2018-06-11T02:47:37.029Z,18.41
2018-06-11T02:50:06.320Z,18.35
2018-06-11T02:52:35.371Z,18.33
2018-06-11T02:55:04.341Z,18.27
2018-06-11T02:57:33.388Z,18.19
2018-06-11T03:00:02.415Z,18.20
2018-06-11T03:02:31.447Z,18.22
2018-06-11T03:05:00.409Z,18.29
2018-06-11T03:07:29.366Z,18.28
2018-06-11T03:09:58.331Z,18.25
2018-06-11T03:12:27.306Z,18.28
2018-06-11T03:14:56.334Z,18.29
2018-06-11T03:17:25.281Z,18.24
2018-06-11T03:19:54.310Z,18.28
2018-06-11T03:22:23.202Z,18.29
2018-06-11T03:24:51.836Z,18.28
2018-06-11T03:27:20.881Z,18.31
2018-06-11T03:29:49.862Z,18.34
2018-06-11T03:32:18.794Z,18.37
2018-06-11T03:34:47.708Z,18.37
2018-06-11T03:37:16.649Z,18.35
2018-06-11T03:39:50.631Z,18.37
2018-06-11T03:42:19.318Z,18.40
2018-06-11T03:44:48.000Z,18.44
2018-06-11T03:47:16.685Z,18.44
2018-06-11T03:49:45.375Z,18.46
2018-06-11T03:52:14.213Z,18.49
2018-06-11T03:54:43.232Z,18.50
2018-06-11T03:57:12.103Z,18.51
2018-06-11T03:59:40.760Z,18.58
2018-06-11T04:02:10.295Z,18.59
2018-06-11T04:04:39.017Z,18.64
2018-06-11T04:07:08.042Z,18.67
2018-06-11T04:09:37.078Z,18.64
2018-06-11T04:12:06.060Z,18.58
2018-06-11T04:14:35.064Z,18.60
2018-06-11T04:17:04.189Z,18.67
2018-06-11T04:19:33.248Z,18.63
2018-06-11T04:22:02.241Z,18.57
2018-06-11T04:24:31.154Z,18.53
2018-06-11T04:27:00.197Z,18.58
2018-06-11T04:29:29.168Z,18.59
2018-06-11T04:31:58.153Z,18.57
2018-06-11T04:34:26.955Z,18.59
2018-06-11T04:36:55.883Z,18.62
2018-06-11T04:39:24.561Z,18.72
2018-06-11T04:41:53.584Z,18.86
2018-06-11T04:44:28.894Z,18.98
2018-06-11T04:46:57.753Z,19.08
2018-06-11T04:49:26.479Z,19.15
2018-06-11T04:51:55.132Z,18.93
2018-06-11T04:54:23.847Z,19.15
2018-06-11T04:56:52.479Z,19.25
2018-06-11T04:59:53.837Z,19.37
2018-06-11T05:02:22.586Z,19.49
2018-06-11T05:04:51.224Z,19.55
2018-06-11T05:07:19.924Z,19.63
2018-06-11T05:09:48.931Z,19.69
2018-06-11T05:12:17.876Z,19.73
2018-06-11T05:14:46.840Z,19.77
2018-06-11T05:17:15.830Z,19.85
2018-06-11T05:19:44.620Z,19.86
2018-06-11T05:22:13.285Z,19.92
2018-06-11T05:24:42.127Z,20.03
2018-06-11T05:27:11.132Z,20.15
2018-06-11T05:29:40.118Z,20.30
2018-06-11T05:32:09.223Z,20.37
2018-06-11T05:34:38.268Z,20.43
2018-06-11T05:37:07.311Z,20.52
2018-06-11T05:39:36.323Z,20.60
2018-06-11T05:42:05.125Z,20.70
2018-06-11T05:44:33.856Z,20.79
2018-06-11T05:47:02.619Z,20.87
2018-06-11T05:49:31.625Z,20.96
2018-06-11T05:52:00.667Z,21.04
2018-06-11T05:54:29.642Z,21.10
2018-06-11T05:56:58.581Z,21.20
2018-06-11T05:59:27.648Z,21.31
2018-06-11T06:01:56.661Z,21.45
2018-06-11T06:04:25.701Z,21.57
2018-06-11T06:06:54.812Z,21.66
2018-06-11T06:09:23.847Z,21.74
2018-06-11T06:11:52.681Z,21.87
2018-06-11T06:14:21.667Z,21.98
2018-06-11T06:16:50.666Z,22.09
2018-06-11T06:19:19.430Z,22.23
2018-06-11T06:21:48.225Z,22.33
2018-06-11T06:24:17.328Z,22.45
2018-06-11T06:26:46.373Z,22.57
2018-06-11T06:29:15.427Z,22.68
2018-06-11T06:31:44.236Z,22.81
2018-06-11T06:34:13.391Z,22.95
2018-06-11T06:36:42.493Z,23.11
2018-06-11T06:39:11.491Z,23.21
2018-06-11T06:41:40.488Z,23.31
2018-06-11T06:44:09.512Z,23.37
2018-06-11T06:46:38.526Z,23.26
2018-06-11T06:49:07.618Z,23.51
2018-06-11T06:51:36.688Z,23.70
2018-06-11T06:54:05.816Z,23.74
2018-06-11T06:56:34.781Z,23.56
2018-06-11T06:59:03.618Z,23.68
2018-06-11T07:01:32.407Z,23.87
2018-06-11T07:04:01.787Z,23.79
2018-06-11T07:06:30.765Z,23.95
2018-06-11T07:08:59.820Z,24.27
2018-06-11T07:11:28.859Z,24.48
2018-06-11T07:13:57.948Z,24.49
2018-06-11T07:16:26.635Z,24.57
2018-06-11T07:18:55.753Z,24.80
2018-06-11T07:21:24.971Z,24.80
2018-06-11T07:23:54.089Z,25.04
2018-06-11T07:26:23.098Z,25.03
2018-06-11T07:28:52.203Z,25.06
2018-06-11T07:31:21.352Z,25.11
2018-06-11T07:33:50.317Z,25.20
2018-06-11T07:36:19.458Z,25.40
2018-06-11T07:38:48.696Z,25.64
2018-06-11T07:41:17.693Z,25.82
2018-06-11T07:43:46.780Z,25.92
2018-06-11T07:46:15.886Z,25.42
2018-06-11T07:48:45.026Z,25.64
2018-06-11T07:51:13.762Z,25.70
2018-06-11T07:53:42.483Z,26.00
2018-06-11T07:56:11.194Z,26.05
2018-06-11T07:58:39.895Z,26.32
2018-06-11T08:01:08.897Z,26.53
2018-06-11T08:03:37.960Z,26.73
2018-06-11T08:06:07.015Z,26.79
2018-06-11T08:08:36.021Z,26.93
2018-06-11T08:11:05.230Z,27.14
2018-06-11T08:13:34.270Z,27.25
2018-06-11T08:16:03.152Z,27.09
2018-06-11T08:18:32.191Z,27.30
2018-06-11T08:21:01.291Z,27.31
2018-06-11T08:23:30.375Z,27.44
2018-06-11T08:25:59.485Z,27.34
2018-06-11T08:28:28.526Z,27.09
2018-06-11T08:30:57.533Z,27.05
2018-06-11T08:33:26.320Z,27.29
2018-06-11T08:35:56.458Z,27.58
2018-06-11T08:38:26.981Z,27.47
2018-06-11T08:40:57.955Z,27.44
2018-06-11T08:43:27.084Z,26.66
2018-06-11T08:45:56.278Z,26.63
2018-06-11T08:48:25.352Z,26.88
2018-06-11T08:50:54.407Z,27.19
2018-06-11T08:53:23.264Z,27.42
2018-06-11T08:55:52.000Z,27.54
2018-06-11T08:58:20.828Z,27.72
2018-06-11T09:00:49.852Z,27.91
2018-06-11T09:03:18.865Z,28.06
2018-06-11T09:05:47.991Z,27.53
2018-06-11T09:08:17.677Z,27.47
2018-06-11T09:10:46.873Z,27.67
2018-06-11T09:13:16.033Z,27.80
2018-06-11T09:15:45.115Z,27.43
2018-06-11T09:18:14.333Z,27.12
2018-06-11T09:20:43.400Z,27.35
2018-06-11T09:23:12.517Z,27.45
2018-06-11T09:25:41.526Z,27.60
2018-06-11T09:28:10.611Z,27.82
2018-06-11T09:30:39.826Z,27.91
2018-06-11T09:33:08.847Z,27.72
2018-06-11T09:35:37.877Z,27.77
2018-06-11T09:38:07.063Z,27.78
2018-06-11T09:40:36.243Z,27.81
2018-06-11T09:43:05.309Z,27.84
2018-06-11T09:45:34.465Z,28.01
2018-06-11T09:48:03.539Z,28.11
2018-06-11T09:50:32.601Z,28.16
2018-06-11T09:53:01.698Z,28.22
2018-06-11T09:55:30.842Z,28.34
2018-06-11T09:57:59.824Z,28.39
2018-06-11T10:00:32.941Z,28.45
2018-06-11T10:03:01.983Z,28.60
2018-06-11T10:05:31.040Z,28.72
2018-06-11T10:08:00.024Z,28.74
2018-06-11T10:10:30.275Z,28.80
2018-06-11T10:12:59.448Z,28.61
2018-06-11T10:15:28.512Z,28.24
2018-06-11T10:17:58.738Z,28.37
2018-06-11T10:20:27.731Z,28.33
2018-06-11T10:22:56.782Z,28.46
2018-06-11T10:25:25.892Z,28.45
2018-06-11T10:27:55.980Z,28.71
2018-06-11T10:30:25.187Z,28.69
2018-06-11T10:32:54.227Z,28.80
2018-06-11T10:35:23.202Z,29.00
2018-06-11T10:38:09.178Z,28.94
2018-06-11T10:40:38.217Z,29.14
2018-06-11T10:43:07.333Z,29.42
2018-06-11T10:45:36.615Z,29.62
2018-06-11T10:48:05.967Z,29.55
2018-06-11T10:50:35.083Z,29.72
2018-06-11T10:53:06.887Z,30.01
2018-06-11T10:55:35.906Z,30.08
2018-06-11T10:58:05.135Z,30.37
2018-06-11T11:00:34.306Z,29.90
2018-06-11T11:03:03.635Z,29.88
2018-06-11T11:05:32.751Z,30.08
2018-06-11T11:08:01.721Z,30.17
2018-06-11T11:10:30.813Z,30.53
2018-06-11T11:12:59.887Z,30.53
2018-06-11T11:15:28.917Z,30.25
2018-06-11T11:21:02.489Z,30.55
2018-06-11T11:23:32.047Z,30.27
2018-06-11T11:26:01.875Z,30.51
2018-06-11T11:28:31.208Z,30.57
2018-06-11T11:31:00.236Z,30.34
2018-06-11T11:33:29.506Z,30.25
2018-06-11T11:35:58.549Z,30.29
2018-06-11T11:38:27.684Z,30.38
2018-06-11T11:41:02.515Z,30.46
2018-06-11T11:43:31.662Z,30.73
2018-06-11T11:46:01.703Z,30.72
2018-06-11T11:48:35.601Z,30.34
2018-06-11T11:51:04.543Z,29.77
2018-06-11T11:53:34.169Z,30.00
2018-06-11T11:56:03.239Z,30.11
2018-06-11T11:58:32.045Z,29.56
2018-06-11T12:01:00.958Z,29.54
2018-06-11T12:03:30.467Z,28.77
2018-06-11T12:05:59.665Z,28.97
2018-06-11T12:08:29.801Z,29.66
2018-06-11T12:11:00.560Z,30.00
2018-06-11T12:13:29.775Z,30.47
2018-06-11T12:16:00.557Z,30.64
2018-06-11T12:18:29.738Z,30.48
2018-06-11T12:20:58.929Z,30.58
2018-06-11T12:23:28.149Z,30.03
2018-06-11T12:25:56.918Z,30.11
2018-06-11T12:28:25.837Z,29.82
2018-06-11T12:30:54.664Z,29.91
2018-06-11T12:33:23.579Z,29.59
2018-06-11T12:36:08.419Z,29.42
2018-06-11T12:38:37.435Z,29.63
2018-06-11T12:41:07.108Z,29.55
2018-06-11T12:43:35.967Z,29.99
2018-06-11T12:46:05.864Z,30.42
2018-06-11T12:48:34.854Z,30.72
2018-06-11T12:51:04.007Z,30.81
2018-06-11T12:53:33.333Z,30.74
2018-06-11T12:56:02.387Z,30.49
2018-06-11T12:58:31.564Z,30.49
2018-06-11T13:01:00.697Z,30.55
2018-06-11T13:03:29.741Z,30.52
2018-06-11T13:05:58.845Z,30.20
2018-06-11T13:08:27.935Z,30.38
2018-06-11T13:10:57.176Z,30.53
2018-06-11T13:13:26.156Z,30.64
2018-06-11T13:15:56.276Z,30.92
2018-06-11T13:18:25.381Z,30.60
2018-06-11T13:20:54.889Z,30.57
2018-06-11T13:23:24.081Z,30.65
2018-06-11T13:25:53.183Z,31.12
2018-06-11T13:28:22.382Z,31.49
2018-06-11T13:30:51.606Z,31.57
2018-06-11T13:33:21.670Z,31.84
2018-06-11T13:35:50.764Z,32.05
2018-06-11T13:38:20.013Z,32.03
2018-06-11T13:40:51.171Z,31.68
2018-06-11T13:43:20.011Z,31.50
2018-06-11T13:45:49.268Z,31.54
2018-06-11T13:54:00.861Z,31.91
2018-06-11T13:56:30.592Z,32.18
2018-06-11T14:02:34.446Z,32.42
2018-06-11T14:05:03.698Z,32.37
2018-06-11T14:07:33.460Z,32.31
2018-06-11T14:10:12.306Z,32.21
2018-06-11T14:12:41.626Z,32.11
2018-06-11T14:15:12.834Z,31.62
2018-06-11T14:17:43.718Z,31.06
2018-06-11T14:20:12.615Z,30.72
2018-06-11T14:22:43.657Z,30.90
2018-06-11T14:25:12.667Z,31.01
2018-06-11T14:27:41.962Z,31.23
2018-06-11T14:30:11.393Z,31.24
2018-06-11T14:32:41.476Z,31.40
2018-06-11T14:35:10.616Z,31.60
2018-06-11T14:37:41.825Z,31.79
2018-06-11T14:40:13.196Z,31.93
2018-06-11T14:42:42.344Z,32.01
2018-06-11T14:45:11.590Z,31.98
2018-06-11T14:47:40.912Z,32.09
2018-06-11T14:50:10.073Z,32.01
2018-06-11T14:52:39.256Z,31.92
2018-06-11T14:55:08.379Z,31.84
2018-06-11T14:57:37.593Z,31.66
2018-06-11T15:00:06.819Z,31.58
2018-06-11T15:02:35.827Z,31.56
2018-06-11T15:05:04.937Z,31.66
2018-06-11T15:07:34.095Z,31.73
2018-06-11T15:10:03.658Z,31.85
2018-06-11T15:12:33.602Z,31.99
2018-06-11T15:15:04.146Z,31.29
2018-06-11T15:17:36.843Z,31.09
2018-06-11T15:20:06.094Z,31.02
2018-06-11T15:22:35.213Z,31.17
2018-06-11T15:25:04.289Z,31.43
2018-06-11T15:27:34.151Z,31.48
2018-06-11T15:30:03.647Z,30.97
2018-06-11T15:32:33.406Z,31.17
2018-06-11T15:35:02.718Z,31.16
2018-06-11T15:37:32.620Z,30.98
2018-06-11T15:40:01.769Z,30.63
2018-06-11T15:42:30.897Z,30.96
2018-06-11T15:45:01.136Z,31.18
2018-06-11T15:47:30.573Z,31.29
2018-06-11T15:49:59.529Z,31.23
2018-06-11T15:52:28.553Z,31.03
2018-06-11T15:54:57.645Z,31.02
2018-06-11T15:57:26.658Z,31.04
2018-06-11T15:59:56.789Z,31.04
2018-06-11T16:02:25.941Z,31.10
2018-06-11T16:04:56.255Z,31.05
2018-06-11T16:07:25.473Z,31.02
2018-06-11T16:09:54.591Z,31.12
2018-06-11T16:12:24.296Z,31.11
2018-06-11T16:14:55.126Z,30.76
2018-06-11T16:17:24.275Z,30.47
2018-06-11T16:19:53.598Z,30.54
2018-06-11T16:22:22.741Z,30.68
2018-06-11T16:24:51.654Z,30.30
2018-06-11T16:27:20.657Z,30.33
2018-06-11T16:29:49.588Z,30.33
2018-06-11T16:32:18.760Z,30.34
2018-06-11T16:34:47.956Z,30.40
2018-06-11T16:37:18.980Z,30.15
2018-06-11T16:39:47.814Z,30.22
2018-06-11T16:42:16.949Z,30.23
2018-06-11T16:44:46.363Z,30.31
2018-06-11T16:47:15.576Z,30.37
2018-06-11T16:49:44.766Z,30.44
2018-06-11T16:52:14.031Z,30.40
2018-06-11T16:54:46.022Z,30.24
2018-06-11T16:57:15.168Z,30.20
2018-06-11T16:59:44.231Z,30.11
2018-06-11T17:02:13.649Z,29.99
2018-06-11T17:04:42.921Z,29.87
2018-06-11T17:07:13.025Z,29.86
2018-06-11T17:09:42.376Z,29.78
2018-06-11T17:12:11.493Z,29.70
2018-06-11T17:14:40.521Z,29.69
2018-06-11T17:17:09.646Z,29.74
2018-06-11T17:19:38.880Z,29.66
2018-06-11T17:22:07.953Z,29.62
2018-06-11T17:24:37.121Z,29.49
2018-06-11T17:27:06.224Z,29.37
2018-06-11T17:29:35.355Z,29.30
2018-06-11T17:32:04.492Z,29.22
2018-06-11T17:34:33.561Z,29.13
2018-06-11T17:37:02.815Z,28.84
2018-06-11T17:39:31.996Z,28.79
2018-06-11T17:42:00.991Z,28.80
2018-06-11T17:44:30.206Z,28.88
2018-06-11T17:46:59.382Z,28.77
2018-06-11T17:49:28.560Z,28.65
2018-06-11T17:51:57.635Z,28.62
2018-06-11T17:54:26.911Z,28.64
2018-06-11T17:56:56.024Z,28.60
2018-06-11T17:59:25.083Z,28.56
2018-06-11T18:01:54.277Z,28.49
2018-06-11T18:04:23.506Z,28.49
2018-06-11T18:06:52.638Z,28.39
2018-06-11T18:09:23.734Z,28.40
2018-06-11T18:11:53.613Z,28.39
2018-06-11T18:14:34.697Z,28.28
2018-06-11T18:17:03.802Z,28.22
2018-06-11T18:19:32.945Z,28.17
2018-06-11T18:22:08.606Z,28.07
2018-06-11T18:24:37.702Z,27.96
2018-06-11T18:27:06.823Z,27.92
2018-06-11T18:29:36.257Z,27.87
2018-06-11T18:32:05.807Z,27.78
2018-06-11T18:34:34.917Z,27.67
2018-06-11T18:37:04.394Z,27.68
2018-06-11T18:39:33.474Z,27.62
2018-06-11T18:42:02.789Z,27.54
2018-06-11T18:44:31.999Z,27.34
2018-06-11T18:49:44.604Z,27.18
2018-06-11T18:52:15.354Z,27.13
2018-06-11T18:54:44.559Z,27.09
2018-06-11T18:57:13.924Z,27.06
2018-06-11T18:59:43.173Z,27.08
2018-06-11T19:02:12.701Z,27.05
2018-06-11T19:04:41.797Z,26.94
2018-06-11T19:07:10.936Z,26.86
2018-06-11T19:09:40.217Z,26.77
2018-06-11T19:12:09.457Z,26.67
2018-06-11T19:14:38.515Z,26.61
2018-06-11T19:17:07.731Z,26.56
2018-06-11T19:19:36.713Z,26.51
2018-06-11T19:22:06.043Z,26.38
2018-06-11T19:24:35.120Z,26.39
2018-06-11T19:27:04.904Z,26.40
2018-06-11T19:29:37.367Z,26.48
2018-06-11T19:32:06.380Z,26.39
2018-06-11T19:34:35.602Z,26.26
2018-06-11T19:37:04.619Z,26.06
2018-06-11T19:39:41.093Z,25.99
2018-06-11T19:42:11.861Z,25.96
2018-06-11T19:44:40.955Z,25.92
2018-06-11T19:47:10.178Z,25.87
2018-06-11T19:49:39.388Z,25.86
2018-06-11T19:52:08.549Z,25.84
2018-06-11T19:54:37.568Z,25.80
2018-06-11T19:57:06.706Z,25.69
2018-06-11T19:59:35.763Z,25.66
2018-06-11T20:02:05.453Z,25.63
2018-06-11T20:04:34.737Z,25.55
2018-06-11T20:07:03.863Z,25.52
2018-06-11T20:09:33.079Z,25.43
2018-06-11T20:12:02.139Z,25.31
2018-06-11T20:14:31.323Z,25.31
2018-06-11T20:17:00.493Z,25.31
2018-06-11T20:22:20.213Z,25.10
2018-06-11T20:24:49.323Z,25.11
2018-06-11T20:27:18.531Z,25.12
2018-06-11T20:29:47.565Z,25.07
2018-06-11T20:32:17.678Z,25.08
2018-06-11T20:34:46.918Z,24.95
2018-06-11T20:37:15.977Z,24.89
2018-06-11T20:39:44.977Z,24.89
2018-06-11T20:42:14.073Z,24.75
2018-06-11T20:44:44.682Z,24.69
2018-06-11T20:47:13.723Z,24.66
2018-06-11T20:49:42.770Z,24.57
2018-06-11T20:52:11.788Z,24.54
2018-06-11T20:54:41.096Z,24.50
2018-06-11T20:57:10.578Z,24.60
2018-06-11T20:59:39.533Z,24.50
2018-06-11T21:02:08.679Z,24.44
2018-06-11T21:04:38.345Z,24.44
2018-06-11T21:07:07.546Z,24.49
2018-06-11T21:09:36.707Z,24.60
2018-06-11T21:12:05.718Z,24.71
2018-06-11T21:14:35.013Z,24.77
2018-06-11T21:17:04.538Z,24.60
2018-06-11T21:19:34.753Z,24.49
2018-06-11T21:22:03.971Z,24.49
2018-06-11T21:24:33.029Z,24.53
2018-06-11T21:27:02.232Z,24.62
2018-06-11T21:29:31.416Z,24.47
2018-06-11T21:32:00.425Z,24.24
2018-06-11T21:34:30.500Z,24.24
2018-06-11T21:36:59.630Z,24.31
2018-06-11T21:39:28.743Z,24.25
2018-06-11T21:41:58.902Z,24.22
2018-06-11T21:44:27.960Z,24.26
2018-06-11T21:46:57.866Z,24.22
2018-06-11T21:49:27.071Z,24.17
2018-06-11T21:51:56.194Z,24.14
2018-06-11T21:54:26.667Z,24.06
2018-06-11T21:56:55.842Z,24.09
2018-06-11T21:59:25.301Z,24.11
2018-06-11T22:01:54.404Z,24.06
2018-06-11T22:04:23.809Z,24.02
2018-06-11T22:06:52.917Z,23.94
2018-06-11T22:09:22.027Z,23.91
2018-06-11T22:11:52.199Z,23.91
2018-06-11T22:14:22.044Z,23.89
2018-06-11T22:16:51.084Z,23.87
2018-06-11T22:19:20.149Z,23.79
2018-06-11T22:21:49.299Z,23.66
2018-06-11T22:24:18.528Z,23.42
2018-06-11T22:26:48.996Z,22.46
2018-06-11T22:29:18.547Z,22.54
2018-06-11T22:31:48.224Z,22.74
2018-06-11T22:34:17.563Z,22.90
2018-06-11T22:36:46.834Z,23.05
2018-06-11T22:39:16.353Z,23.19
2018-06-11T22:41:45.868Z,23.19
2018-06-11T22:44:15.392Z,23.11
2018-06-11T22:46:44.481Z,23.17
2018-06-11T22:49:13.569Z,23.26
2018-06-11T22:51:42.888Z,23.23
2018-06-11T22:54:12.082Z,23.25
2018-06-11T22:56:41.170Z,23.34
2018-06-11T22:59:10.497Z,23.39
2018-06-11T23:01:39.534Z,23.29
2018-06-11T23:04:08.747Z,23.33
2018-06-11T23:06:37.796Z,23.36
2018-06-11T23:09:08.281Z,23.35
2018-06-11T23:11:37.387Z,23.41
2018-06-11T23:14:06.408Z,23.46
2018-06-11T23:16:35.441Z,23.52
2018-06-11T23:19:04.533Z,23.57
2018-06-11T23:21:33.517Z,23.41
2018-06-11T23:24:09.030Z,23.39
2018-06-11T23:26:38.154Z,23.44
2018-06-11T23:29:07.090Z,23.31
2018-06-11T23:31:36.142Z,23.22
2018-06-11T23:34:05.155Z,23.13
2018-06-11T23:36:34.150Z,23.18
2018-06-11T23:39:03.322Z,23.15
2018-06-11T23:41:32.339Z,23.19
2018-06-11T23:44:01.013Z,23.13
2018-06-11T23:46:29.894Z,23.11
2018-06-11T23:48:58.960Z,23.11
2018-06-11T23:51:27.965Z,23.13
2018-06-11T23:53:57.112Z,23.16
2018-06-11T23:56:26.187Z,23.10
2018-06-11T23:58:55.191Z,23.13
